Time,TemperatureF,DewpointF,PressureIn,WindDirection,WindDirectionDegrees,WindSpeedMPH,WindSpeedGustMPH,Humidity,HourlyPrecipIn,Conditions,Clouds,dailyrainin,SoftwareType,DateUTC
2013-04-13 00:00:00,27.0,21.9,29.95,West,272,0.0,0.0,81,0.00,,,0.03,Wunderground v.1.15,2013-04-13 06:00:00,
2013-04-13 00:30:00,26.0,21.5,29.94,West,272,0.0,0.0,83,0.00,,,0.00,Wunderground v.1.15,2013-04-13 06:30:00,
2013-04-13 01:00:00,25.7,20.7,29.95,West,272,0.0,0.0,81,0.00,,,0.00,Wunderground v.1.15,2013-04-13 07:00:00,
2013-04-13 01:30:00,25.6,20.0,29.94,West,272,0.0,0.0,79,0.00,,,0.00,Wunderground v.1.15,2013-04-13 07:30:00,
2013-04-13 02:00:00,23.8,18.5,29.93,SE,129,0.0,0.0,80,0.00,,,0.00,Wunderground v.1.15,2013-04-13 08:00:00,
2013-04-13 02:30:00,23.6,18.0,29.91,WNW,292,0.0,0.0,79,0.00,,,0.00,Wunderground v.1.15,2013-04-13 08:30:00,
2013-04-13 03:00:00,21.4,16.8,29.89,ESE,108,0.0,0.0,82,0.00,,,0.00,Wunderground v.1.15,2013-04-13 09:00:00,
2013-04-13 03:30:00,20.5,16.2,29.86,East,101,0.0,0.0,83,0.00,,,0.00,Wunderground v.1.15,2013-04-13 09:30:00,
2013-04-13 04:00:00,20.5,16.4,29.84,East,101,0.0,0.0,84,0.00,,,0.00,Wunderground v.1.15,2013-04-13 10:00:00,
2013-04-13 04:30:00,20.3,16.5,29.82,East,93,0.0,0.0,85,0.00,,,0.00,Wunderground v.1.15,2013-04-13 10:30:00,
2013-04-13 05:00:00,20.2,16.4,29.81,East,101,0.0,0.0,85,0.00,,,0.00,Wunderground v.1.15,2013-04-13 11:00:00,
2013-04-13 05:30:00,19.1,14.8,29.79,East,101,0.0,0.0,83,0.00,,,0.00,Wunderground v.1.15,2013-04-13 11:30:00,
2013-04-13 06:00:00,19.1,15.1,29.77,East,93,0.0,0.0,84,0.00,,,0.00,Wunderground v.1.15,2013-04-13 12:00:00,
2013-04-13 06:30:00,21.3,17.2,29.76,East,99,0.0,0.0,84,0.00,,,0.00,Wunderground v.1.15,2013-04-13 12:30:00,
2013-04-13 07:00:00,22.9,18.5,29.74,East,92,1.0,2.0,83,0.00,,,0.00,Wunderground v.1.15,2013-04-13 13:00:00,
2013-04-13 07:30:00,23.6,19.5,29.72,SE,128,0.0,0.0,84,0.00,,,0.00,Wunderground v.1.15,2013-04-13 13:30:00,
2013-04-13 08:00:00,26.4,21.9,29.71,SE,128,3.0,4.0,83,0.00,,,0.00,Wunderground v.1.15,2013-04-13 14:00:00,
2013-04-13 08:30:00,28.4,23.3,29.69,SSE,151,4.0,4.0,81,0.00,,,0.00,Wunderground v.1.15,2013-04-13 14:30:00,
2013-04-13 09:00:00,30.1,24.4,29.66,SSE,149,4.0,4.0,79,0.00,,,0.00,Wunderground v.1.15,2013-04-13 15:00:00,
2013-04-13 09:30:00,31.6,25.2,29.64,SE,129,6.0,6.0,77,0.00,,,0.00,Wunderground v.1.15,2013-04-13 15:30:00,
2013-04-13 10:00:00,33.7,26.6,29.62,SE,128,7.0,7.0,75,0.00,,,0.00,Wunderground v.1.15,2013-04-13 16:00:00,
2013-04-13 10:30:00,33.2,26.5,29.61,East,83,8.0,8.0,76,0.00,,,0.00,Wunderground v.1.15,2013-04-13 16:30:00,
2013-04-13 11:00:00,33.4,26.3,29.60,ESE,108,8.0,8.0,75,0.00,,,0.00,Wunderground v.1.15,2013-04-13 17:00:00,
2013-04-13 11:30:00,34.3,27.2,29.59,SSE,150,7.0,8.0,75,0.00,,,0.00,Wunderground v.1.15,2013-04-13 17:30:00,
2013-04-13 12:30:00,36.8,29.0,29.55,SE,135,5.0,7.0,73,0.00,,,0.00,Wunderground v.1.15,2013-04-13 18:30:00,
2013-04-13 13:00:00,38.8,29.8,29.54,SE,141,5.0,5.0,70,0.00,,,0.00,Wunderground v.1.15,2013-04-13 19:00:00,
2013-04-13 13:30:00,39.5,30.5,29.52,SSE,147,7.0,8.0,70,0.00,,,0.00,Wunderground v.1.15,2013-04-13 19:30:00,
2013-04-13 14:00:00,40.3,31.3,29.51,SE,141,8.0,8.0,70,0.00,,,0.00,Wunderground v.1.15,2013-04-13 20:00:00,
2013-04-13 14:30:00,41.3,31.5,29.50,ESE,120,6.0,12.0,68,0.00,,,0.00,Wunderground v.1.15,2013-04-13 20:30:00,
2013-04-13 15:00:00,41.5,32.4,29.48,SE,133,5.0,5.0,70,0.00,,,0.00,Wunderground v.1.15,2013-04-13 21:00:00,
2013-04-13 15:30:00,42.1,33.4,29.48,East,83,5.0,5.0,71,0.00,,,0.00,Wunderground v.1.15,2013-04-13 21:30:00,
2013-04-13 16:00:00,42.8,33.7,29.46,East,87,3.0,5.0,70,0.00,,,0.00,Wunderground v.1.15,2013-04-13 22:00:00,
2013-04-13 16:30:00,40.8,33.5,29.45,East,98,5.0,5.0,75,0.00,,,0.00,Wunderground v.1.15,2013-04-13 22:30:00,
2013-04-13 17:00:00,39.9,33.3,29.46,East,83,4.0,4.0,77,0.00,,,0.00,Wunderground v.1.15,2013-04-13 23:00:00,
2013-04-13 17:30:00,39.3,33.3,29.45,East,93,2.0,2.0,79,0.00,,,0.00,Wunderground v.1.15,2013-04-13 23:30:00,
2013-04-13 18:00:00,38.9,33.3,29.47,East,85,2.0,2.0,80,0.00,,,0.00,Wunderground v.1.15,2013-04-14 00:00:00,
2013-04-13 18:30:00,38.6,33.3,29.45,East,95,1.0,1.0,81,0.00,,,0.00,Wunderground v.1.15,2013-04-14 00:30:00,
2013-04-13 19:00:00,36.6,31.9,29.44,NE,36,1.0,1.0,83,0.00,,,0.00,Wunderground v.1.15,2013-04-14 01:00:00,
2013-04-13 19:30:00,35.3,31.5,29.43,NE,45,0.0,0.0,86,0.00,,,0.00,Wunderground v.1.15,2013-04-14 01:30:00,
2013-04-13 20:00:00,35.0,31.8,29.42,East,95,1.0,1.0,88,0.00,,,0.00,Wunderground v.1.15,2013-04-14 02:00:00,
2013-04-13 20:30:00,34.6,31.4,29.44,East,95,0.0,2.0,88,0.00,,,0.00,Wunderground v.1.15,2013-04-14 02:30:00,
2013-04-13 21:00:00,34.4,31.5,29.44,East,94,0.0,0.0,89,0.00,,,0.00,Wunderground v.1.15,2013-04-14 03:00:00,
2013-04-13 21:30:00,33.8,30.9,29.44,ENE,74,0.0,0.0,89,0.00,,,0.00,Wunderground v.1.15,2013-04-14 03:30:00,
2013-04-13 22:00:00,33.5,30.9,29.44,NE,51,0.0,0.0,90,0.00,,,0.00,Wunderground v.1.15,2013-04-14 04:00:00,
2013-04-13 22:30:00,33.1,30.8,29.44,NNE,25,0.0,0.0,91,0.00,,,0.00,Wunderground v.1.15,2013-04-14 04:30:00,
2013-04-13 23:00:00,33.1,31.0,29.43,NE,36,0.0,0.0,92,0.00,,,0.00,Wunderground v.1.15,2013-04-14 05:00:00,
2013-04-13 23:30:00,32.9,30.8,29.40,East,90,0.0,0.0,92,0.00,,,0.00,Wunderground v.1.15,2013-04-14 05:30:00,